Saint-Sauveur, Quebec

2:57 AM EDT on June 27, 2017 (GMT -0400)
Saint-Sauveur | | Change Station

Elev 920 ft 45.88 °N, 74.19 °W | Updated 12 seconds ago

Overcast
Overcast
51.9 °F
Feels Like 51.9 °F
N
0.0
Wind Variable Wind from NNW

Today
High -- | Low -- °F
--% Chance of Precip.
Yesterday
High -- | Low -- °F
Precip. -- in
Pressure 29.92 in
Visibility 25.0 miles
Clouds Mostly Cloudy 6600 ft
Dew Point 50 °F
Humidity 95%
Rainfall 0.02 in
Snow Depth Not available.
5:08 AM 8:51 PM
Waxing Crescent, 14% visible
METAR CYMX 270600Z 22008KT 25SM BKN066 15/13 A2991 RMK SC6 SLP132 DENSITY ALT 400FT
Pressure 29.92 in
Visibility 25.0 miles
Clouds Mostly Cloudy 6600 ft
Dew Point 50 °F
Humidity 95%
Rainfall 0.02 in
Snow Depth Not available.
5:08 AM 8:51 PM
Waxing Crescent, 14% visible
METAR CYMX 270600Z 22008KT 25SM BKN066 15/13 A2991 RMK SC6 SLP132 DENSITY ALT 400FT

Get Severe Weather Alerts

Thanks for signing up!

Be on the lookout for a verification email in your inbox.

You'll start receiving the daily forecast at 6 AM.

×

10-Day Weather Forecast

Almanac

Astronomy

Jun. 27, 2017 Rise Set
Actual Time
Civil Twilight
Nautical Twilight
Astronomical Twilight
Moon
Length of Visible Light
Length of Day
Tomorrow will be .
, % of the Moon is Illuminated

Today's Extremes

Country Highs Country Lows

Community

WunderPhotos

Category 6

Welcome to Category 6. This is the collective home for Weather Underground's featured writeups by Dr. Jeff Masters (right), Bob Henson (left), Chris Burt, and other regular contributors.

Nearby

Air Quality

  Air Quality AQ Index Pollutant
Not available.

Snow Depth

Station Depth Elevation

Earthquake Activity

City Distance Mag. Time & Date
Minimum magnitude displayed is 2.5.

Coastal Water Temperatures

Place Temperature

Stations

Nearby Weather Stations

Station Location Temp. Windchill Dew Point Humidity Wind Precip. Elev Updated Type
                   

Watches & Warnings

There are currently no watches in effect.